sensor_id;sensor_type;location;lat;lon;timestamp;temperature;humidity
10702;DHT22;5402;50.004;8.246;2023-10-31T00:00:12;12.70;99.90
10702;DHT22;5402;50.004;8.246;2023-10-31T00:02:38;12.70;99.90
10702;DHT22;5402;50.004;8.246;2023-10-31T00:05:06;12.60;99.90
10702;DHT22;5402;50.004;8.246;2023-10-31T00:07:34;12.60;99.90
10702;DHT22;5402;50.004;8.246;2023-10-31T00:10:01;12.60;99.90
10702;DHT22;5402;50.004;8.246;2023-10-31T00:12:27;12.60;99.90
10702;DHT22;5402;50.004;8.246;2023-10-31T00:14:57;12.60;99.90
10702;DHT22;5402;50.004;8.246;2023-10-31T00:17:23;12.60;99.90
10702;DHT22;5402;50.004;8.246;2023-10-31T00:19:50;12.50;99.90
10702;DHT22;5402;50.004;8.246;2023-10-31T00:22:17;12.40;99.90
10702;DHT22;5402;50.004;8.246;2023-10-31T00:24:46;12.40;99.90
10702;DHT22;5402;50.004;8.246;2023-10-31T00:27:13;12.40;99.90
10702;DHT22;5402;50.004;8.246;2023-10-31T00:29:40;12.30;99.90
10702;DHT22;5402;50.004;8.246;2023-10-31T00:32:07;12.30;99.90
10702;DHT22;5402;50.004;8.246;2023-10-31T00:34:34;12.30;99.90
10702;DHT22;5402;50.004;8.246;2023-10-31T00:37:00;12.40;99.90
10702;DHT22;5402;50.004;8.246;2023-10-31T00:39:27;12.20;99.90
10702;DHT22;5402;50.004;8.246;2023-10-31T00:41:55;12.20;99.90
10702;DHT22;5402;50.004;8.246;2023-10-31T00:44:22;12.20;99.90
10702;DHT22;5402;50.004;8.246;2023-10-31T00:46:49;12.10;99.90
10702;DHT22;5402;50.004;8.246;2023-10-31T00:49:15;12.10;99.90
10702;DHT22;5402;50.004;8.246;2023-10-31T00:51:42;12.10;99.90
10702;DHT22;5402;50.004;8.246;2023-10-31T00:54:09;12.00;99.90
10702;DHT22;5402;50.004;8.246;2023-10-31T00:56:35;12.00;99.90
10702;DHT22;5402;50.004;8.246;2023-10-31T00:59:03;12.00;99.90
10702;DHT22;5402;50.004;8.246;2023-10-31T01:01:30;11.90;99.90
10702;DHT22;5402;50.004;8.246;2023-10-31T01:03:57;11.80;99.90
10702;DHT22;5402;50.004;8.246;2023-10-31T01:06:24;11.80;99.90
10702;DHT22;5402;50.004;8.246;2023-10-31T01:08:52;11.70;99.90
10702;DHT22;5402;50.004;8.246;2023-10-31T01:11:18;11.90;99.90
10702;DHT22;5402;50.004;8.246;2023-10-31T01:13:45;11.60;99.90
10702;DHT22;5402;50.004;8.246;2023-10-31T01:16:13;11.60;99.90
10702;DHT22;5402;50.004;8.246;2023-10-31T01:18:40;11.60;99.90
10702;DHT22;5402;50.004;8.246;2023-10-31T01:21:07;11.50;99.90
10702;DHT22;5402;50.004;8.246;2023-10-31T01:23:34;11.50;99.90
10702;DHT22;5402;50.004;8.246;2023-10-31T01:26:01;11.50;99.90
10702;DHT22;5402;50.004;8.246;2023-10-31T01:28:27;11.40;99.90
10702;DHT22;5402;50.004;8.246;2023-10-31T01:30:54;11.40;99.90
10702;DHT22;5402;50.004;8.246;2023-10-31T01:33:22;11.40;99.90
10702;DHT22;5402;50.004;8.246;2023-10-31T01:35:49;11.40;99.90
10702;DHT22;5402;50.004;8.246;2023-10-31T01:38:16;11.40;99.90
10702;DHT22;5402;50.004;8.246;2023-10-31T01:40:42;11.30;99.90
10702;DHT22;5402;50.004;8.246;2023-10-31T01:43:09;11.30;99.90
10702;DHT22;5402;50.004;8.246;2023-10-31T01:45:36;11.30;99.90
10702;DHT22;5402;50.004;8.246;2023-10-31T01:48:03;11.20;99.90
10702;DHT22;5402;50.004;8.246;2023-10-31T01:50:31;11.20;99.90
10702;DHT22;5402;50.004;8.246;2023-10-31T01:52:58;11.20;99.90
10702;DHT22;5402;50.004;8.246;2023-10-31T01:55:25;11.10;99.90
10702;DHT22;5402;50.004;8.246;2023-10-31T01:57:53;11.10;99.90
10702;DHT22;5402;50.004;8.246;2023-10-31T02:00:20;11.00;99.90
10702;DHT22;5402;50.004;8.246;2023-10-31T02:02:46;11.00;99.90
10702;DHT22;5402;50.004;8.246;2023-10-31T02:05:13;10.90;99.90
10702;DHT22;5402;50.004;8.246;2023-10-31T02:07:44;10.90;99.90
10702;DHT22;5402;50.004;8.246;2023-10-31T02:10:11;10.90;99.90
10702;DHT22;5402;50.004;8.246;2023-10-31T02:12:38;10.90;99.90
10702;DHT22;5402;50.004;8.246;2023-10-31T02:15:06;10.80;99.90
10702;DHT22;5402;50.004;8.246;2023-10-31T02:17:33;10.80;99.90
10702;DHT22;5402;50.004;8.246;2023-10-31T02:19:59;10.90;99.90
10702;DHT22;5402;50.004;8.246;2023-10-31T02:22:28;10.80;99.90
10702;DHT22;5402;50.004;8.246;2023-10-31T02:24:55;10.80;99.90
10702;DHT22;5402;50.004;8.246;2023-10-31T02:27:21;10.80;99.90
10702;DHT22;5402;50.004;8.246;2023-10-31T02:29:48;10.70;99.90
10702;DHT22;5402;50.004;8.246;2023-10-31T02:32:15;10.70;99.90
10702;DHT22;5402;50.004;8.246;2023-10-31T02:34:44;10.60;99.90
10702;DHT22;5402;50.004;8.246;2023-10-31T02:37:11;10.60;99.90
10702;DHT22;5402;50.004;8.246;2023-10-31T02:39:40;10.60;99.90
10702;DHT22;5402;50.004;8.246;2023-10-31T02:42:06;10.50;99.90
10702;DHT22;5402;50.004;8.246;2023-10-31T02:44:33;10.50;99.90
10702;DHT22;5402;50.004;8.246;2023-10-31T02:47:00;10.50;99.90
10702;DHT22;5402;50.004;8.246;2023-10-31T02:49:26;10.60;99.90
10702;DHT22;5402;50.004;8.246;2023-10-31T02:51:53;10.50;99.90
10702;DHT22;5402;50.004;8.246;2023-10-31T02:54:20;10.50;99.90
10702;DHT22;5402;50.004;8.246;2023-10-31T02:56:48;10.50;99.90
10702;DHT22;5402;50.004;8.246;2023-10-31T02:59:15;10.50;99.90
10702;DHT22;5402;50.004;8.246;2023-10-31T03:01:42;10.50;99.90
10702;DHT22;5402;50.004;8.246;2023-10-31T03:04:08;10.50;99.90
10702;DHT22;5402;50.004;8.246;2023-10-31T03:06:35;10.50;99.90
10702;DHT22;5402;50.004;8.246;2023-10-31T03:09:02;10.50;99.90
10702;DHT22;5402;50.004;8.246;2023-10-31T03:11:30;10.50;99.90
10702;DHT22;5402;50.004;8.246;2023-10-31T03:13:59;10.50;99.90
10702;DHT22;5402;50.004;8.246;2023-10-31T03:16:26;10.50;99.90
10702;DHT22;5402;50.004;8.246;2023-10-31T03:18:53;10.40;99.90
10702;DHT22;5402;50.004;8.246;2023-10-31T03:21:19;10.40;99.90
10702;DHT22;5402;50.004;8.246;2023-10-31T03:23:47;10.40;99.90
10702;DHT22;5402;50.004;8.246;2023-10-31T03:26:15;10.40;99.90
10702;DHT22;5402;50.004;8.246;2023-10-31T03:28:42;10.40;99.90
10702;DHT22;5402;50.004;8.246;2023-10-31T03:31:11;10.40;99.90
10702;DHT22;5402;50.004;8.246;2023-10-31T03:33:38;10.40;99.90
10702;DHT22;5402;50.004;8.246;2023-10-31T03:36:05;10.40;99.90
10702;DHT22;5402;50.004;8.246;2023-10-31T03:38:33;10.40;99.90
10702;DHT22;5402;50.004;8.246;2023-10-31T03:41:00;10.40;99.90
10702;DHT22;5402;50.004;8.246;2023-10-31T03:43:27;10.30;99.90
10702;DHT22;5402;50.004;8.246;2023-10-31T03:45:54;10.50;99.90
10702;DHT22;5402;50.004;8.246;2023-10-31T03:48:22;10.40;99.90
10702;DHT22;5402;50.004;8.246;2023-10-31T03:50:49;10.50;99.90
10702;DHT22;5402;50.004;8.246;2023-10-31T03:53:17;10.50;99.90
10702;DHT22;5402;50.004;8.246;2023-10-31T03:55:43;10.50;99.90
10702;DHT22;5402;50.004;8.246;2023-10-31T03:58:10;10.50;99.90
10702;DHT22;5402;50.004;8.246;2023-10-31T04:00:39;10.60;99.90
10702;DHT22;5402;50.004;8.246;2023-10-31T04:03:07;10.70;99.90
10702;DHT22;5402;50.004;8.246;2023-10-31T04:05:35;10.80;99.90
10702;DHT22;5402;50.004;8.246;2023-10-31T04:08:03;10.80;99.90
10702;DHT22;5402;50.004;8.246;2023-10-31T04:10:29;10.70;99.90
10702;DHT22;5402;50.004;8.246;2023-10-31T04:12:56;10.80;99.90
10702;DHT22;5402;50.004;8.246;2023-10-31T04:15:23;10.90;99.90
10702;DHT22;5402;50.004;8.246;2023-10-31T04:17:49;10.90;99.90
10702;DHT22;5402;50.004;8.246;2023-10-31T04:20:16;10.90;99.90
10702;DHT22;5402;50.004;8.246;2023-10-31T04:22:44;10.90;99.90
10702;DHT22;5402;50.004;8.246;2023-10-31T04:25:11;10.80;99.90
10702;DHT22;5402;50.004;8.246;2023-10-31T04:27:37;11.00;99.90
10702;DHT22;5402;50.004;8.246;2023-10-31T04:30:05;11.00;99.90
10702;DHT22;5402;50.004;8.246;2023-10-31T04:32:32;11.00;99.90
10702;DHT22;5402;50.004;8.246;2023-10-31T04:34:59;11.00;99.90
10702;DHT22;5402;50.004;8.246;2023-10-31T04:37:25;11.00;99.90
10702;DHT22;5402;50.004;8.246;2023-10-31T04:39:53;11.00;99.90
10702;DHT22;5402;50.004;8.246;2023-10-31T04:42:20;10.90;99.90
10702;DHT22;5402;50.004;8.246;2023-10-31T04:44:48;11.00;99.90
10702;DHT22;5402;50.004;8.246;2023-10-31T04:47:14;11.00;99.90
10702;DHT22;5402;50.004;8.246;2023-10-31T04:49:41;11.00;99.90
10702;DHT22;5402;50.004;8.246;2023-10-31T04:52:08;11.00;99.90
10702;DHT22;5402;50.004;8.246;2023-10-31T04:54:34;11.00;99.90
10702;DHT22;5402;50.004;8.246;2023-10-31T04:57:03;11.00;99.90
10702;DHT22;5402;50.004;8.246;2023-10-31T04:59:30;11.00;99.90
10702;DHT22;5402;50.004;8.246;2023-10-31T05:01:58;11.00;99.90
10702;DHT22;5402;50.004;8.246;2023-10-31T05:04:24;11.10;99.90
10702;DHT22;5402;50.004;8.246;2023-10-31T05:06:51;11.10;99.90
10702;DHT22;5402;50.004;8.246;2023-10-31T05:09:18;11.10;99.90
10702;DHT22;5402;50.004;8.246;2023-10-31T05:11:45;11.20;99.90
10702;DHT22;5402;50.004;8.246;2023-10-31T05:14:13;11.20;99.90
10702;DHT22;5402;50.004;8.246;2023-10-31T05:16:41;11.20;99.90
10702;DHT22;5402;50.004;8.246;2023-10-31T05:19:08;11.30;99.90
10702;DHT22;5402;50.004;8.246;2023-10-31T05:21:34;11.20;99.90
10702;DHT22;5402;50.004;8.246;2023-10-31T05:24:01;11.10;99.90
10702;DHT22;5402;50.004;8.246;2023-10-31T05:26:28;11.20;99.90
10702;DHT22;5402;50.004;8.246;2023-10-31T05:28:55;11.20;99.90
10702;DHT22;5402;50.004;8.246;2023-10-31T05:31:24;11.20;99.90
10702;DHT22;5402;50.004;8.246;2023-10-31T05:33:51;11.10;99.90
10702;DHT22;5402;50.004;8.246;2023-10-31T05:36:18;11.20;99.90
10702;DHT22;5402;50.004;8.246;2023-10-31T05:38:45;11.30;99.90
10702;DHT22;5402;50.004;8.246;2023-10-31T05:41:12;11.20;99.90
10702;DHT22;5402;50.004;8.246;2023-10-31T05:43:39;11.30;99.90
10702;DHT22;5402;50.004;8.246;2023-10-31T05:46:06;11.30;99.90
10702;DHT22;5402;50.004;8.246;2023-10-31T05:48:37;11.30;99.90
10702;DHT22;5402;50.004;8.246;2023-10-31T05:51:04;11.40;99.90
10702;DHT22;5402;50.004;8.246;2023-10-31T05:53:31;11.40;99.90
10702;DHT22;5402;50.004;8.246;2023-10-31T05:55:59;11.40;99.90
10702;DHT22;5402;50.004;8.246;2023-10-31T05:58:26;11.40;99.90
10702;DHT22;5402;50.004;8.246;2023-10-31T06:00:52;11.40;99.90
10702;DHT22;5402;50.004;8.246;2023-10-31T06:03:19;11.30;99.90
10702;DHT22;5402;50.004;8.246;2023-10-31T06:05:47;11.40;99.90
10702;DHT22;5402;50.004;8.246;2023-10-31T06:08:14;11.40;99.90
10702;DHT22;5402;50.004;8.246;2023-10-31T06:10:41;11.40;99.90
10702;DHT22;5402;50.004;8.246;2023-10-31T06:13:08;11.40;99.90
10702;DHT22;5402;50.004;8.246;2023-10-31T06:15:34;11.40;99.90
10702;DHT22;5402;50.004;8.246;2023-10-31T06:18:01;11.40;99.90
10702;DHT22;5402;50.004;8.246;2023-10-31T06:20:28;11.40;99.90
10702;DHT22;5402;50.004;8.246;2023-10-31T06:22:56;11.30;99.90
10702;DHT22;5402;50.004;8.246;2023-10-31T06:25:24;11.30;99.90
10702;DHT22;5402;50.004;8.246;2023-10-31T06:27:51;11.40;99.90
10702;DHT22;5402;50.004;8.246;2023-10-31T06:30:18;11.30;99.90
10702;DHT22;5402;50.004;8.246;2023-10-31T06:32:45;11.40;99.90
10702;DHT22;5402;50.004;8.246;2023-10-31T06:35:12;11.40;99.90
10702;DHT22;5402;50.004;8.246;2023-10-31T06:37:38;11.40;99.90
10702;DHT22;5402;50.004;8.246;2023-10-31T06:40:08;11.40;99.90
10702;DHT22;5402;50.004;8.246;2023-10-31T06:42:35;11.40;99.90
10702;DHT22;5402;50.004;8.246;2023-10-31T06:45:02;11.40;99.90
10702;DHT22;5402;50.004;8.246;2023-10-31T06:47:28;11.40;99.90
10702;DHT22;5402;50.004;8.246;2023-10-31T06:49:55;11.40;99.90
10702;DHT22;5402;50.004;8.246;2023-10-31T06:52:22;11.40;99.90
10702;DHT22;5402;50.004;8.246;2023-10-31T06:54:49;11.40;99.90
10702;DHT22;5402;50.004;8.246;2023-10-31T06:57:17;11.40;99.90
10702;DHT22;5402;50.004;8.246;2023-10-31T06:59:44;11.40;99.90
10702;DHT22;5402;50.004;8.246;2023-10-31T07:02:11;11.40;99.90
10702;DHT22;5402;50.004;8.246;2023-10-31T07:04:39;11.40;99.90
10702;DHT22;5402;50.004;8.246;2023-10-31T07:07:06;11.40;99.90
10702;DHT22;5402;50.004;8.246;2023-10-31T07:09:32;11.40;99.90
10702;DHT22;5402;50.004;8.246;2023-10-31T07:11:59;11.40;99.90
10702;DHT22;5402;50.004;8.246;2023-10-31T07:14:27;11.40;99.90
10702;DHT22;5402;50.004;8.246;2023-10-31T07:16:55;11.30;99.90
10702;DHT22;5402;50.004;8.246;2023-10-31T07:19:22;11.40;99.90
10702;DHT22;5402;50.004;8.246;2023-10-31T07:21:49;11.40;99.90
10702;DHT22;5402;50.004;8.246;2023-10-31T07:24:15;11.40;99.90
10702;DHT22;5402;50.004;8.246;2023-10-31T07:26:42;11.40;99.90
10702;DHT22;5402;50.004;8.246;2023-10-31T07:29:09;11.40;99.90
10702;DHT22;5402;50.004;8.246;2023-10-31T07:31:37;11.40;99.90
10702;DHT22;5402;50.004;8.246;2023-10-31T07:34:04;11.40;99.90
10702;DHT22;5402;50.004;8.246;2023-10-31T07:36:31;11.40;99.90
10702;DHT22;5402;50.004;8.246;2023-10-31T07:39:00;11.40;99.90
10702;DHT22;5402;50.004;8.246;2023-10-31T07:41:27;11.40;99.90
10702;DHT22;5402;50.004;8.246;2023-10-31T07:43:54;11.40;99.90
10702;DHT22;5402;50.004;8.246;2023-10-31T07:46:21;11.50;99.90
10702;DHT22;5402;50.004;8.246;2023-10-31T07:48:50;11.50;99.90
10702;DHT22;5402;50.004;8.246;2023-10-31T07:51:16;11.50;99.90
10702;DHT22;5402;50.004;8.246;2023-10-31T07:53:43;11.50;99.90
10702;DHT22;5402;50.004;8.246;2023-10-31T07:56:15;11.60;99.90
10702;DHT22;5402;50.004;8.246;2023-10-31T07:58:42;11.60;99.90
10702;DHT22;5402;50.004;8.246;2023-10-31T08:01:08;11.60;99.90
10702;DHT22;5402;50.004;8.246;2023-10-31T08:03:36;11.70;99.90
10702;DHT22;5402;50.004;8.246;2023-10-31T08:06:06;11.80;99.90
10702;DHT22;5402;50.004;8.246;2023-10-31T08:08:33;11.80;99.90
10702;DHT22;5402;50.004;8.246;2023-10-31T08:11:00;11.80;99.90
10702;DHT22;5402;50.004;8.246;2023-10-31T08:13:26;11.90;99.90
10702;DHT22;5402;50.004;8.246;2023-10-31T08:15:54;12.00;99.90
10702;DHT22;5402;50.004;8.246;2023-10-31T08:18:22;12.10;99.90
10702;DHT22;5402;50.004;8.246;2023-10-31T08:20:49;12.20;99.90
10702;DHT22;5402;50.004;8.246;2023-10-31T08:23:18;12.20;99.90
10702;DHT22;5402;50.004;8.246;2023-10-31T08:25:44;12.30;99.90
10702;DHT22;5402;50.004;8.246;2023-10-31T08:28:12;12.30;99.90
10702;DHT22;5402;50.004;8.246;2023-10-31T08:30:38;12.40;99.90
10702;DHT22;5402;50.004;8.246;2023-10-31T08:33:05;12.40;99.90
10702;DHT22;5402;50.004;8.246;2023-10-31T08:35:32;12.50;99.90
10702;DHT22;5402;50.004;8.246;2023-10-31T08:37:59;12.50;99.90
10702;DHT22;5402;50.004;8.246;2023-10-31T08:40:27;12.50;99.90
10702;DHT22;5402;50.004;8.246;2023-10-31T08:42:54;12.40;99.90
10702;DHT22;5402;50.004;8.246;2023-10-31T08:45:21;12.40;99.90
10702;DHT22;5402;50.004;8.246;2023-10-31T08:47:48;12.40;99.90
10702;DHT22;5402;50.004;8.246;2023-10-31T08:50:15;12.30;99.90
10702;DHT22;5402;50.004;8.246;2023-10-31T08:52:42;12.50;99.90
10702;DHT22;5402;50.004;8.246;2023-10-31T08:55:09;12.50;99.90
10702;DHT22;5402;50.004;8.246;2023-10-31T08:57:37;12.60;99.90
10702;DHT22;5402;50.004;8.246;2023-10-31T09:00:05;12.60;99.90
10702;DHT22;5402;50.004;8.246;2023-10-31T09:02:32;12.70;99.90
10702;DHT22;5402;50.004;8.246;2023-10-31T09:04:59;12.80;99.90
10702;DHT22;5402;50.004;8.246;2023-10-31T09:07:26;12.90;99.90
10702;DHT22;5402;50.004;8.246;2023-10-31T09:09:53;13.00;99.90
10702;DHT22;5402;50.004;8.246;2023-10-31T09:12:20;13.00;99.90
10702;DHT22;5402;50.004;8.246;2023-10-31T09:14:48;13.10;99.90
10702;DHT22;5402;50.004;8.246;2023-10-31T09:17:15;13.10;99.90
10702;DHT22;5402;50.004;8.246;2023-10-31T09:19:41;13.00;99.90
10702;DHT22;5402;50.004;8.246;2023-10-31T09:22:08;12.90;99.90
10702;DHT22;5402;50.004;8.246;2023-10-31T09:24:35;12.90;99.90
10702;DHT22;5402;50.004;8.246;2023-10-31T09:27:01;12.80;99.90
10702;DHT22;5402;50.004;8.246;2023-10-31T09:29:28;12.70;99.90
10702;DHT22;5402;50.004;8.246;2023-10-31T09:31:57;12.60;99.90
10702;DHT22;5402;50.004;8.246;2023-10-31T09:34:24;12.50;99.90
10702;DHT22;5402;50.004;8.246;2023-10-31T09:36:51;12.70;99.90
10702;DHT22;5402;50.004;8.246;2023-10-31T09:39:18;12.60;99.90
10702;DHT22;5402;50.004;8.246;2023-10-31T09:41:45;12.70;99.90
10702;DHT22;5402;50.004;8.246;2023-10-31T09:44:14;12.70;99.90
10702;DHT22;5402;50.004;8.246;2023-10-31T09:46:41;12.80;99.90
10702;DHT22;5402;50.004;8.246;2023-10-31T09:49:09;12.90;99.90
10702;DHT22;5402;50.004;8.246;2023-10-31T09:51:37;13.00;99.90
10702;DHT22;5402;50.004;8.246;2023-10-31T09:54:05;13.10;99.90
10702;DHT22;5402;50.004;8.246;2023-10-31T09:56:33;13.20;99.90
10702;DHT22;5402;50.004;8.246;2023-10-31T09:59:00;13.30;99.90
10702;DHT22;5402;50.004;8.246;2023-10-31T10:01:28;13.30;99.90
10702;DHT22;5402;50.004;8.246;2023-10-31T10:03:56;13.50;99.90
10702;DHT22;5402;50.004;8.246;2023-10-31T10:06:24;13.70;99.90
10702;DHT22;5402;50.004;8.246;2023-10-31T10:08:51;13.70;99.90
10702;DHT22;5402;50.004;8.246;2023-10-31T10:11:19;13.90;99.90
10702;DHT22;5402;50.004;8.246;2023-10-31T10:13:45;14.10;99.90
10702;DHT22;5402;50.004;8.246;2023-10-31T10:16:12;14.20;99.90
10702;DHT22;5402;50.004;8.246;2023-10-31T10:18:39;14.00;99.90
10702;DHT22;5402;50.004;8.246;2023-10-31T10:21:08;14.10;99.90
10702;DHT22;5402;50.004;8.246;2023-10-31T10:23:36;14.10;99.90
10702;DHT22;5402;50.004;8.246;2023-10-31T10:26:03;14.10;99.90
10702;DHT22;5402;50.004;8.246;2023-10-31T10:28:30;14.00;99.90
10702;DHT22;5402;50.004;8.246;2023-10-31T10:30:58;14.00;99.90
10702;DHT22;5402;50.004;8.246;2023-10-31T10:33:26;14.10;99.90
10702;DHT22;5402;50.004;8.246;2023-10-31T10:35:54;14.30;99.90
10702;DHT22;5402;50.004;8.246;2023-10-31T10:38:23;14.40;99.90
10702;DHT22;5402;50.004;8.246;2023-10-31T10:40:53;14.40;99.90
10702;DHT22;5402;50.004;8.246;2023-10-31T10:43:23;14.20;99.90
10702;DHT22;5402;50.004;8.246;2023-10-31T10:45:53;14.20;99.90
10702;DHT22;5402;50.004;8.246;2023-10-31T10:48:22;14.30;99.90
10702;DHT22;5402;50.004;8.246;2023-10-31T10:50:55;14.60;99.90
10702;DHT22;5402;50.004;8.246;2023-10-31T10:53:24;14.50;99.90
10702;DHT22;5402;50.004;8.246;2023-10-31T10:55:57;14.60;99.90
10702;DHT22;5402;50.004;8.246;2023-10-31T10:58:31;14.60;99.90
10702;DHT22;5402;50.004;8.246;2023-10-31T11:01:00;14.50;99.90
10702;DHT22;5402;50.004;8.246;2023-10-31T11:03:29;14.40;99.90
10702;DHT22;5402;50.004;8.246;2023-10-31T11:05:56;14.40;99.90
10702;DHT22;5402;50.004;8.246;2023-10-31T11:08:23;14.50;99.90
10702;DHT22;5402;50.004;8.246;2023-10-31T11:10:53;14.50;99.90
10702;DHT22;5402;50.004;8.246;2023-10-31T11:13:22;14.50;99.90
10702;DHT22;5402;50.004;8.246;2023-10-31T11:15:54;14.50;99.90
10702;DHT22;5402;50.004;8.246;2023-10-31T11:18:22;14.50;99.90
10702;DHT22;5402;50.004;8.246;2023-10-31T11:20:49;14.40;99.90
10702;DHT22;5402;50.004;8.246;2023-10-31T11:23:16;14.50;99.90
10702;DHT22;5402;50.004;8.246;2023-10-31T11:25:43;14.50;99.90
10702;DHT22;5402;50.004;8.246;2023-10-31T11:28:13;14.60;99.90
10702;DHT22;5402;50.004;8.246;2023-10-31T11:30:41;14.70;99.90
10702;DHT22;5402;50.004;8.246;2023-10-31T11:33:12;14.90;99.90
10702;DHT22;5402;50.004;8.246;2023-10-31T11:35:40;14.90;99.90
10702;DHT22;5402;50.004;8.246;2023-10-31T11:38:08;14.80;99.90
10702;DHT22;5402;50.004;8.246;2023-10-31T11:40:37;14.90;99.90
10702;DHT22;5402;50.004;8.246;2023-10-31T11:43:05;15.10;99.90
10702;DHT22;5402;50.004;8.246;2023-10-31T11:45:36;15.10;99.90
10702;DHT22;5402;50.004;8.246;2023-10-31T11:48:04;15.10;99.90
10702;DHT22;5402;50.004;8.246;2023-10-31T11:50:31;15.10;99.90
10702;DHT22;5402;50.004;8.246;2023-10-31T11:52:59;15.10;99.90
10702;DHT22;5402;50.004;8.246;2023-10-31T11:55:27;14.80;99.90
10702;DHT22;5402;50.004;8.246;2023-10-31T11:57:54;14.90;99.90
10702;DHT22;5402;50.004;8.246;2023-10-31T12:00:21;15.00;99.90
10702;DHT22;5402;50.004;8.246;2023-10-31T12:02:59;15.10;99.90
10702;DHT22;5402;50.004;8.246;2023-10-31T12:05:27;15.10;99.90
10702;DHT22;5402;50.004;8.246;2023-10-31T12:07:55;15.20;99.90
10702;DHT22;5402;50.004;8.246;2023-10-31T12:10:22;15.20;99.90
10702;DHT22;5402;50.004;8.246;2023-10-31T12:12:50;15.20;99.90
10702;DHT22;5402;50.004;8.246;2023-10-31T12:15:16;15.10;99.90
10702;DHT22;5402;50.004;8.246;2023-10-31T12:17:43;15.20;99.90
10702;DHT22;5402;50.004;8.246;2023-10-31T12:20:12;15.10;99.90
10702;DHT22;5402;50.004;8.246;2023-10-31T12:22:38;15.10;99.90
10702;DHT22;5402;50.004;8.246;2023-10-31T12:25:07;15.30;99.90
10702;DHT22;5402;50.004;8.246;2023-10-31T12:27:42;15.40;99.90
10702;DHT22;5402;50.004;8.246;2023-10-31T12:30:10;15.60;99.90
10702;DHT22;5402;50.004;8.246;2023-10-31T12:32:37;15.60;99.90
10702;DHT22;5402;50.004;8.246;2023-10-31T12:35:04;15.50;99.90
10702;DHT22;5402;50.004;8.246;2023-10-31T12:37:33;15.40;99.90
10702;DHT22;5402;50.004;8.246;2023-10-31T12:40:00;15.20;99.90
10702;DHT22;5402;50.004;8.246;2023-10-31T12:42:30;14.90;99.90
10702;DHT22;5402;50.004;8.246;2023-10-31T12:44:58;14.80;99.90
10702;DHT22;5402;50.004;8.246;2023-10-31T12:47:25;14.70;99.90
10702;DHT22;5402;50.004;8.246;2023-10-31T12:50:06;14.90;99.90
10702;DHT22;5402;50.004;8.246;2023-10-31T12:52:55;15.10;99.90
10702;DHT22;5402;50.004;8.246;2023-10-31T12:55:26;15.40;99.90
10702;DHT22;5402;50.004;8.246;2023-10-31T12:57:53;15.30;99.90
10702;DHT22;5402;50.004;8.246;2023-10-31T13:00:21;15.30;99.90
10702;DHT22;5402;50.004;8.246;2023-10-31T13:02:51;15.30;99.90
10702;DHT22;5402;50.004;8.246;2023-10-31T13:05:18;15.30;99.90
10702;DHT22;5402;50.004;8.246;2023-10-31T13:07:49;15.20;99.90
10702;DHT22;5402;50.004;8.246;2023-10-31T13:10:18;15.20;99.90
10702;DHT22;5402;50.004;8.246;2023-10-31T13:12:45;15.20;99.90
10702;DHT22;5402;50.004;8.246;2023-10-31T13:15:13;15.20;99.90
10702;DHT22;5402;50.004;8.246;2023-10-31T13:17:40;15.20;99.90
10702;DHT22;5402;50.004;8.246;2023-10-31T13:20:09;15.10;99.90
10702;DHT22;5402;50.004;8.246;2023-10-31T13:22:36;15.10;99.90
10702;DHT22;5402;50.004;8.246;2023-10-31T13:25:04;15.00;99.90
10702;DHT22;5402;50.004;8.246;2023-10-31T13:27:34;15.10;99.90
10702;DHT22;5402;50.004;8.246;2023-10-31T13:30:04;15.00;99.90
10702;DHT22;5402;50.004;8.246;2023-10-31T13:32:31;15.00;99.90
10702;DHT22;5402;50.004;8.246;2023-10-31T13:34:58;15.00;99.90
10702;DHT22;5402;50.004;8.246;2023-10-31T13:37:25;15.20;99.90
10702;DHT22;5402;50.004;8.246;2023-10-31T13:39:52;15.10;99.90
10702;DHT22;5402;50.004;8.246;2023-10-31T13:42:19;15.20;99.90
10702;DHT22;5402;50.004;8.246;2023-10-31T13:44:47;15.20;99.90
10702;DHT22;5402;50.004;8.246;2023-10-31T13:47:14;15.20;99.90
10702;DHT22;5402;50.004;8.246;2023-10-31T13:49:41;15.10;99.90
10702;DHT22;5402;50.004;8.246;2023-10-31T13:52:07;15.10;99.90
10702;DHT22;5402;50.004;8.246;2023-10-31T13:54:34;15.00;99.90
10702;DHT22;5402;50.004;8.246;2023-10-31T13:57:02;15.00;99.90
10702;DHT22;5402;50.004;8.246;2023-10-31T13:59:29;15.00;99.90
10702;DHT22;5402;50.004;8.246;2023-10-31T14:02:00;15.00;99.90
10702;DHT22;5402;50.004;8.246;2023-10-31T14:04:27;14.90;99.90
10702;DHT22;5402;50.004;8.246;2023-10-31T14:06:54;14.90;99.90
10702;DHT22;5402;50.004;8.246;2023-10-31T14:09:21;14.80;99.90
10702;DHT22;5402;50.004;8.246;2023-10-31T14:11:48;14.80;99.90
10702;DHT22;5402;50.004;8.246;2023-10-31T14:14:15;14.70;99.90
10702;DHT22;5402;50.004;8.246;2023-10-31T14:16:42;14.70;99.90
10702;DHT22;5402;50.004;8.246;2023-10-31T14:19:11;14.80;99.90
10702;DHT22;5402;50.004;8.246;2023-10-31T14:21:39;14.70;99.90
10702;DHT22;5402;50.004;8.246;2023-10-31T14:24:07;14.70;99.90
10702;DHT22;5402;50.004;8.246;2023-10-31T14:26:35;14.60;99.90
10702;DHT22;5402;50.004;8.246;2023-10-31T14:29:08;14.50;99.90
10702;DHT22;5402;50.004;8.246;2023-10-31T14:31:39;14.60;99.90
10702;DHT22;5402;50.004;8.246;2023-10-31T14:34:07;14.50;99.90
10702;DHT22;5402;50.004;8.246;2023-10-31T14:36:35;14.40;99.90
10702;DHT22;5402;50.004;8.246;2023-10-31T14:39:02;14.30;99.90
10702;DHT22;5402;50.004;8.246;2023-10-31T14:41:30;14.20;99.90
10702;DHT22;5402;50.004;8.246;2023-10-31T14:43:59;14.10;99.90
10702;DHT22;5402;50.004;8.246;2023-10-31T14:46:26;14.00;99.90
10702;DHT22;5402;50.004;8.246;2023-10-31T14:48:53;14.00;99.90
10702;DHT22;5402;50.004;8.246;2023-10-31T14:51:20;14.00;99.90
10702;DHT22;5402;50.004;8.246;2023-10-31T14:53:48;13.90;99.90
10702;DHT22;5402;50.004;8.246;2023-10-31T14:56:15;13.90;99.90
10702;DHT22;5402;50.004;8.246;2023-10-31T14:58:42;13.90;99.90
10702;DHT22;5402;50.004;8.246;2023-10-31T15:01:08;13.80;99.90
10702;DHT22;5402;50.004;8.246;2023-10-31T15:03:35;13.80;99.90
10702;DHT22;5402;50.004;8.246;2023-10-31T15:06:02;13.80;99.90
10702;DHT22;5402;50.004;8.246;2023-10-31T15:08:29;13.80;99.90
10702;DHT22;5402;50.004;8.246;2023-10-31T15:10:57;13.80;99.90
10702;DHT22;5402;50.004;8.246;2023-10-31T15:13:24;13.80;99.90
10702;DHT22;5402;50.004;8.246;2023-10-31T15:15:51;13.80;99.90
10702;DHT22;5402;50.004;8.246;2023-10-31T15:18:18;13.70;99.90
10702;DHT22;5402;50.004;8.246;2023-10-31T15:20:45;13.70;99.90
10702;DHT22;5402;50.004;8.246;2023-10-31T15:23:12;13.50;99.90
10702;DHT22;5402;50.004;8.246;2023-10-31T15:25:40;13.60;99.90
10702;DHT22;5402;50.004;8.246;2023-10-31T15:28:08;13.60;99.90
10702;DHT22;5402;50.004;8.246;2023-10-31T15:30:35;13.50;99.90
10702;DHT22;5402;50.004;8.246;2023-10-31T15:33:02;13.50;99.90
10702;DHT22;5402;50.004;8.246;2023-10-31T15:35:29;13.40;99.90
10702;DHT22;5402;50.004;8.246;2023-10-31T15:37:56;14.10;99.90
10702;DHT22;5402;50.004;8.246;2023-10-31T15:40:23;13.40;99.90
10702;DHT22;5402;50.004;8.246;2023-10-31T15:42:51;13.40;99.90
10702;DHT22;5402;50.004;8.246;2023-10-31T15:45:19;13.30;99.90